Terminal Aerodrome Forecast
Issued by NWS Memphis, TN

Home | Current Version | Previous Version | Text Only | Print | Product List | Glossary On
Versions: 1 2 3 4 5 6 7 8 9 10 11 12 13 14 15 16
092
FTUS44 KMEG 192331
TAFJBR
TAF
KJBR 192331Z 2000/2024 12007KT P6SM VCTS BKN050CB
     FM200100 00000KT P6SM SKC
      TEMPO 2008/2012 3SM BR
     FM201600 18005KT P6SM VCTS SCT050CB=

USA.gov is the U.S. government's official web portal to all federal, state and local government web resources and services.